Time;durP1;ratioP1;P1;durP2;ratioP2;P2;SDS_P1;SDS_P2;PMS_P1;PMS_P2;Temp;Humidity;BMP_temperature;BMP_pressure;BME280_temperature;BME280_humidity;BME280_pressure;Samples;Min_cycle;Max_cycle;Signal;HPM_P1;HPM_P2
2021/07/10 00:00:13;;;;;;;26.90;23.88;;;;;;;14.31;95.87;101287.22;703157;28;1159;-55
2021/07/10 00:00:35;;;;;;;27.33;22.85;;;;;;;14.30;95.45;101289.00;702790;28;1590;-55
2021/07/10 00:00:55;;;;;;;23.88;21.40;;;;;;;14.31;95.33;101292.50;703327;28;1377;-51
2021/07/10 00:01:16;;;;;;;24.63;21.60;;;;;;;14.33;95.42;101292.47;702615;28;1894;-53
2021/07/10 00:01:36;;;;;;;27.48;22.60;;;;;;;14.30;95.52;101291.63;702429;28;4369;-51
2021/07/10 00:01:57;;;;;;;26.67;21.40;;;;;;;14.31;95.07;101290.72;703030;28;1253;-52
2021/07/10 00:02:17;;;;;;;26.52;21.52;;;;;;;14.31;95.33;101288.09;703040;28;1590;-51
2021/07/10 00:02:38;;;;;;;27.03;22.37;;;;;;;14.32;95.39;101286.34;703505;28;1560;-52
2021/07/10 00:03:00;;;;;;;26.92;23.30;;;;;;;14.27;95.48;101289.03;703517;28;1471;-53
2021/07/10 00:03:20;;;;;;;28.20;23.42;;;;;;;14.25;95.60;101285.53;702358;28;4318;-52
2021/07/10 00:03:40;;;;;;;25.77;22.80;;;;;;;14.25;95.48;101285.53;703614;28;1841;-51
2021/07/10 00:04:01;;;;;;;25.25;22.55;;;;;;;14.25;95.44;101289.94;703396;28;1778;-54
2021/07/10 00:04:21;;;;;;;25.13;22.53;;;;;;;14.26;95.14;101282.03;702305;28;1846;-52
2021/07/10 00:04:42;;;;;;;23.00;20.67;;;;;;;14.29;94.90;101287.25;702501;28;4416;-51
2021/07/10 00:05:03;;;;;;;22.60;20.30;;;;;;;14.31;94.56;101288.09;702191;28;1617;-52
2021/07/10 00:05:23;;;;;;;23.17;20.75;;;;;;;14.33;94.90;101288.09;702990;28;1918;-52
2021/07/10 00:05:44;;;;;;;25.43;21.47;;;;;;;14.31;94.64;101284.59;703693;28;1461;-53
2021/07/10 00:06:05;;;;;;;23.47;20.97;;;;;;;14.29;94.74;101286.38;702344;28;1489;-51
2021/07/10 00:06:25;;;;;;;26.35;21.50;;;;;;;14.30;94.72;101282.84;702712;28;1334;-51
2021/07/10 00:06:46;;;;;;;24.83;21.53;;;;;;;14.26;94.70;101284.66;701846;28;1471;-52
2021/07/10 00:07:06;;;;;;;27.13;22.33;;;;;;;14.26;94.80;101282.03;702423;28;1905;-51
2021/07/10 00:07:29;;;;;;;26.83;22.70;;;;;;;14.25;94.95;101279.41;702492;28;4394;-53
2021/07/10 00:07:49;;;;;;;29.00;22.77;;;;;;;14.22;95.22;101277.69;701426;28;4383;-51
2021/07/10 00:08:10;;;;;;;28.60;22.63;;;;;;;14.21;95.25;101281.19;703100;28;1631;-54
2021/07/10 00:08:30;;;;;;;27.45;22.73;;;;;;;14.20;95.07;101281.22;702354;28;1875;-52
2021/07/10 00:08:51;;;;;;;28.43;22.47;;;;;;;14.18;95.00;101277.72;702798;28;2206;-54
2021/07/10 00:09:11;;;;;;;26.33;22.30;;;;;;;14.18;95.13;101275.97;703292;28;1622;-50
2021/07/10 00:09:32;;;;;;;26.07;22.00;;;;;;;14.20;95.13;101273.31;702411;28;1456;-52
2021/07/10 00:09:55;;;;;;;24.00;21.55;;;;;;;14.21;94.93;101278.56;703229;28;1690;-51
2021/07/10 00:10:17;;;;;;;25.92;22.27;;;;;;;14.18;95.37;101275.97;702430;28;1589;-53
2021/07/10 00:10:37;;;;;;;27.45;23.15;;;;;;;14.18;95.13;101275.97;702413;28;4347;-54
2021/07/10 00:10:58;;;;;;;25.40;22.20;;;;;;;14.16;95.24;101283.00;703592;28;1553;-52
2021/07/10 00:11:18;;;;;;;24.37;21.70;;;;;;;14.15;94.99;101276.00;703553;28;1295;-50
2021/07/10 00:11:39;;;;;;;25.47;21.20;;;;;;;14.14;95.32;101269.88;703296;28;1477;-51
2021/07/10 00:12:00;;;;;;;28.42;22.02;;;;;;;14.14;95.55;101275.13;702615;28;3835;-51
2021/07/10 00:12:21;;;;;;;24.52;21.65;;;;;;;14.17;94.91;101270.72;702540;28;4466;-52
2021/07/10 00:12:41;;;;;;;22.60;20.30;;;;;;;14.19;95.29;101277.72;702319;28;1449;-54
2021/07/10 00:13:02;;;;;;;24.02;20.85;;;;;;;14.21;95.07;101273.31;703009;28;1434;-52
2021/07/10 00:13:24;;;;;;;22.87;20.43;;;;;;;14.21;95.00;101273.31;703292;28;1917;-52
2021/07/10 00:13:44;;;;;;;23.23;20.63;;;;;;;14.21;94.69;101273.31;701234;28;4495;-54
2021/07/10 00:14:07;;;;;;;23.33;20.77;;;;;;;14.20;95.07;101270.69;702920;28;2041;-51
2021/07/10 00:14:28;;;;;;;25.00;21.33;;;;;;;14.19;95.08;101269.84;702412;28;1524;-53
2021/07/10 00:14:48;;;;;;;26.45;21.75;;;;;;;14.19;95.26;101275.09;702631;28;1686;-50
2021/07/10 00:15:11;;;;;;;24.33;21.57;;;;;;;14.20;94.95;101271.56;702441;28;1574;-51
2021/07/10 00:15:32;;;;;;;22.95;20.55;;;;;;;14.22;95.01;101268.91;702804;28;1618;-52
2021/07/10 00:15:53;;;;;;;22.80;20.50;;;;;;;14.22;95.14;101269.81;702292;28;1650;-52
2021/07/10 00:16:13;;;;;;;23.27;20.77;;;;;;;14.22;95.13;101264.53;701161;28;1301;-54
2021/07/10 00:16:34;;;;;;;22.80;20.40;;;;;;;14.22;94.79;101272.44;698781;28;4481;-51
2021/07/10 00:16:55;;;;;;;22.07;19.77;;;;;;;14.23;94.81;101275.91;699429;28;1748;-51
2021/07/10 00:17:16;;;;;;;21.60;19.27;;;;;;;14.23;94.69;101271.56;700175;28;1858;-51
2021/07/10 00:17:37;;;;;;;21.23;18.95;;;;;;;14.23;94.62;101274.19;700449;28;1508;-55
2021/07/10 00:17:57;;;;;;;21.17;18.80;;;;;;;14.23;94.49;101270.66;699544;28;1503;-51
2021/07/10 00:18:17;;;;;;;21.37;19.10;;;;;;;14.23;94.25;101271.56;699266;28;1386;-50
2021/07/10 00:18:38;;;;;;;21.40;19.20;;;;;;;14.24;94.20;101268.00;699851;28;1532;-53
2021/07/10 00:18:58;;;;;;;19.38;17.42;;;;;;;14.27;93.85;101267.09;699775;28;1538;-53
2021/07/10 00:19:18;;;;;;;18.77;16.97;;;;;;;14.29;93.53;101271.47;700588;28;1651;-50
2021/07/10 00:19:39;;;;;;;19.55;17.65;;;;;;;14.30;93.62;101267.97;701362;28;4469;-50
2021/07/10 00:19:59;;;;;;;20.13;18.07;;;;;;;14.31;93.48;101272.31;703399;28;1365;-53
2021/07/10 00:20:21;;;;;;;20.40;18.40;;;;;;;14.31;93.69;101269.69;703315;28;1562;-52
2021/07/10 00:20:43;;;;;;;20.73;18.65;;;;;;;14.29;93.65;101266.22;703375;28;1629;-51
2021/07/10 00:21:03;;;;;;;21.48;19.27;;;;;;;14.28;93.81;101268.84;702678;28;4077;-52
2021/07/10 00:21:24;;;;;;;21.98;19.63;;;;;;;14.26;94.15;101268.88;703280;28;1567;-51
2021/07/10 00:21:44;;;;;;;22.60;19.83;;;;;;;14.25;94.44;101272.38;702878;28;1415;-54
2021/07/10 00:22:04;;;;;;;27.00;20.52;;;;;;;14.24;94.37;101264.53;702998;28;1772;-51
2021/07/10 00:22:25;;;;;;;26.40;20.57;;;;;;;14.22;94.43;101267.16;703065;28;2064;-51
2021/07/10 00:22:46;;;;;;;22.47;20.10;;;;;;;14.21;94.46;101273.31;701526;28;4386;-52
2021/07/10 00:23:06;;;;;;;21.75;19.45;;;;;;;14.22;94.40;101274.16;702956;28;1299;-51
2021/07/10 00:23:30;;;;;;;22.42;20.02;;;;;;;14.20;94.53;101266.28;702676;28;1502;-53
2021/07/10 00:23:50;;;;;;;22.25;19.88;;;;;;;14.21;94.41;101265.41;703041;28;1205;-53
2021/07/10 00:24:10;;;;;;;23.73;19.53;;;;;;;14.20;94.82;101268.94;703503;28;1385;-51
2021/07/10 00:24:31;;;;;;;24.30;19.97;;;;;;;14.19;95.00;101266.31;703496;28;1712;-50
2021/07/10 00:24:52;;;;;;;22.67;19.73;;;;;;;14.17;94.63;101261.06;703807;28;1394;-51
2021/07/10 00:25:15;;;;;;;21.48;19.17;;;;;;;14.18;94.40;101267.19;704129;28;1582;-52
2021/07/10 00:25:36;;;;;;;21.05;18.98;;;;;;;14.18;94.56;101262.81;702014;28;4572;-55
2021/07/10 00:25:56;;;;;;;20.77;18.65;;;;;;;14.17;94.27;101268.97;702230;28;1590;-55
2021/07/10 00:26:17;;;;;;;20.93;18.70;;;;;;;14.17;94.12;101271.59;702290;28;1742;-51
2021/07/10 00:26:37;;;;;;;21.77;19.10;;;;;;;14.19;94.34;101264.56;702707;28;1645;-53
2021/07/10 00:27:01;;;;;;;21.27;18.97;;;;;;;14.20;94.37;101270.69;702346;28;1626;-53
2021/07/10 00:27:21;;;;;;;22.08;19.63;;;;;;;14.18;94.53;101269.81;702111;27;1931;-51
2021/07/10 00:27:43;;;;;;;23.20;20.53;;;;;;;14.17;94.67;101265.47;703026;28;1358;-51
2021/07/10 00:28:03;;;;;;;22.70;20.30;;;;;;;14.17;94.74;101270.72;701974;28;2701;-52
2021/07/10 00:28:24;;;;;;;21.98;19.80;;;;;;;14.17;94.66;101265.47;701409;28;1389;-53
2021/07/10 00:28:44;;;;;;;22.33;20.03;;;;;;;14.15;94.61;101268.13;698219;28;4537;-53
2021/07/10 00:29:08;;;;;;;22.38;19.83;;;;;;;14.12;94.64;101266.41;699068;28;1828;-52
2021/07/10 00:29:28;;;;;;;21.38;19.00;;;;;;;14.15;94.70;101268.13;702707;28;1670;-53
2021/07/10 00:29:50;;;;;;;20.40;18.25;;;;;;;14.16;94.44;101263.72;701724;28;3671;-52
2021/07/10 00:30:12;;;;;;;19.75;17.60;;;;;;;14.16;94.41;101259.31;702455;28;1669;-51
2021/07/10 00:30:32;;;;;;;19.38;17.48;;;;;;;14.16;94.16;101261.94;700603;28;1979;-52
2021/07/10 00:30:52;;;;;;;19.27;17.48;;;;;;;14.17;94.19;101266.34;699667;28;1572;-52
2021/07/10 00:31:13;;;;;;;19.40;17.50;;;;;;;14.16;93.74;101259.31;699485;28;1593;-52
2021/07/10 00:31:33;;;;;;;19.90;17.85;;;;;;;14.17;93.83;101261.06;699312;28;4564;-51
2021/07/10 00:31:54;;;;;;;19.00;17.00;;;;;;;14.17;93.76;101255.81;699471;28;2306;-52
2021/07/10 00:32:14;;;;;;;18.90;16.90;;;;;;;14.18;93.78;101259.31;700233;28;1584;-50
2021/07/10 00:32:35;;;;;;;19.60;17.40;;;;;;;14.19;93.74;101263.69;699944;28;2024;-51
2021/07/10 00:32:56;;;;;;;20.25;18.08;;;;;;;14.20;93.57;101261.03;700701;28;1741;-51
2021/07/10 00:33:16;;;;;;;18.98;16.98;;;;;;;14.18;93.72;101254.94;703900;28;1179;-54
2021/07/10 00:33:37;;;;;;;19.43;17.47;;;;;;;14.16;93.82;101259.31;703929;28;1909;-50
2021/07/10 00:33:57;;;;;;;19.48;17.48;;;;;;;14.17;93.76;101249.69;703067;28;1997;-51
2021/07/10 00:34:18;;;;;;;18.95;17.05;;;;;;;14.14;93.78;101248.81;703241;28;3844;-51
2021/07/10 00:34:39;;;;;;;20.25;18.10;;;;;;;14.15;93.87;101252.34;701674;28;4519;-52
2021/07/10 00:34:59;;;;;;;19.80;17.80;;;;;;;14.14;93.68;101251.47;702130;28;1589;-55
2021/07/10 00:35:20;;;;;;;19.57;17.57;;;;;;;14.16;93.44;101255.84;703061;28;1703;-51
2021/07/10 00:35:40;;;;;;;19.40;17.33;;;;;;;14.16;93.37;101253.22;702674;28;1726;-51
2021/07/10 00:36:01;;;;;;;18.35;16.40;;;;;;;14.17;93.08;101253.19;701833;28;1440;-55
2021/07/10 00:36:21;;;;;;;18.70;16.40;;;;;;;14.17;93.22;101254.97;702295;28;1374;-52
2021/07/10 00:36:41;;;;;;;19.15;17.25;;;;;;;14.17;93.51;101247.94;703458;28;1869;-50
2021/07/10 00:37:02;;;;;;;18.87;17.07;;;;;;;14.16;93.02;101254.06;702627;28;1481;-52
2021/07/10 00:37:22;;;;;;;19.60;17.65;;;;;;;14.17;93.19;101252.34;702674;28;1667;-53
2021/07/10 00:37:43;;;;;;;19.37;17.40;;;;;;;14.16;93.31;101251.44;702132;28;4448;-51
2021/07/10 00:38:04;;;;;;;19.27;17.27;;;;;;;14.17;93.22;101255.81;702714;28;1404;-51
2021/07/10 00:38:24;;;;;;;19.20;17.20;;;;;;;14.17;93.12;101253.19;702508;28;1433;-51
2021/07/10 00:38:45;;;;;;;19.10;17.20;;;;;;;14.16;93.24;101248.81;702940;28;4616;-52
2021/07/10 00:39:05;;;;;;;18.80;16.98;;;;;;;14.19;93.07;101250.53;700275;28;1716;-54
2021/07/10 00:39:26;;;;;;;18.40;16.60;;;;;;;14.19;93.10;101254.06;697435;28;1756;-52
2021/07/10 00:39:46;;;;;;;18.98;17.05;;;;;;;14.18;92.92;101249.69;697474;28;2203;-53
2021/07/10 00:40:09;;;;;;;19.27;17.20;;;;;;;14.17;93.11;101247.94;697024;28;1448;-51
2021/07/10 00:40:29;;;;;;;19.27;17.38;;;;;;;14.16;93.49;101253.22;696906;28;4300;-50
2021/07/10 00:40:50;;;;;;;19.00;17.20;;;;;;;14.13;93.25;101248.84;699006;28;1695;-50
2021/07/10 00:41:10;;;;;;;19.63;17.63;;;;;;;14.11;93.38;101253.25;703371;28;1749;-55
2021/07/10 00:41:30;;;;;;;19.93;17.83;;;;;;;14.12;93.55;101262.88;703547;28;1565;-51
2021/07/10 00:41:51;;;;;;;18.27;16.47;;;;;;;14.13;93.55;101246.22;702807;28;1440;-51
2021/07/10 00:42:11;;;;;;;17.37;15.60;;;;;;;14.16;93.36;101248.81;703179;28;1901;-51
2021/07/10 00:42:33;;;;;;;17.67;15.88;;;;;;;14.18;93.31;101249.69;702519;28;1738;-51
2021/07/10 00:42:54;;;;;;;17.70;15.93;;;;;;;14.17;92.91;101255.81;703353;28;1371;-51
2021/07/10 00:43:14;;;;;;;18.20;16.30;;;;;;;14.13;93.04;101254.09;702225;28;4539;-51
2021/07/10 00:43:40;;;;;;;18.37;16.37;;;;;;;14.11;93.17;101255.91;702357;28;4324;-52
2021/07/10 00:44:00;;;;;;;20.52;17.08;;;;;;;14.09;93.28;101255.03;701949;28;1582;-52
2021/07/10 00:44:21;;;;;;;18.20;16.33;;;;;;;14.09;93.33;101249.75;702155;28;1619;-55
2021/07/10 00:44:43;;;;;;;17.50;15.67;;;;;;;14.08;93.21;101251.53;703115;28;1589;-52
2021/07/10 00:45:06;;;;;;;18.15;16.27;;;;;;;14.07;93.18;101244.53;701957;28;1926;-50
2021/07/10 00:45:26;;;;;;;17.85;16.15;;;;;;;14.07;93.19;101255.03;702770;28;1624;-50
2021/07/10 00:45:49;;;;;;;17.40;15.70;;;;;;;14.06;92.81;101255.06;702549;28;1532;-51
2021/07/10 00:46:09;;;;;;;16.95;15.10;;;;;;;14.10;92.88;101248.88;699266;28;1686;-56
2021/07/10 00:46:29;;;;;;;17.55;15.75;;;;;;;14.10;92.79;101254.16;699094;28;4594;-52
2021/07/10 00:46:50;;;;;;;18.47;16.50;;;;;;;14.10;92.78;101248.88;700189;28;1222;-53
2021/07/10 00:47:10;;;;;;;18.52;16.52;;;;;;;14.10;92.78;101254.16;699356;28;2237;-52
2021/07/10 00:47:31;;;;;;;17.90;16.10;;;;;;;14.12;92.76;101249.72;699040;28;4056;-51
2021/07/10 00:47:51;;;;;;;17.95;16.08;;;;;;;14.11;92.65;101261.16;700978;28;4229;-51
2021/07/10 00:48:11;;;;;;;18.30;16.37;;;;;;;14.11;93.03;101255.91;702156;28;1780;-53
2021/07/10 00:48:32;;;;;;;18.30;16.33;;;;;;;14.11;92.81;101250.63;701949;28;1645;-51
2021/07/10 00:48:52;;;;;;;17.88;16.10;;;;;;;14.11;92.37;101250.63;702917;28;1791;-51
2021/07/10 00:49:13;;;;;;;17.50;15.77;;;;;;;14.11;92.37;101255.91;702493;28;1623;-51
2021/07/10 00:49:33;;;;;;;17.75;15.98;;;;;;;14.11;92.60;101253.25;702333;28;4342;-56
2021/07/10 00:49:53;;;;;;;18.13;16.43;;;;;;;14.08;92.77;101251.53;702120;28;1823;-51
2021/07/10 00:50:19;;;;;;;18.65;16.65;;;;;;;14.07;93.12;101255.03;703533;28;1762;-51
2021/07/10 00:50:40;;;;;;;18.63;16.67;;;;;;;14.03;93.42;101249.84;702878;28;1901;-52
2021/07/10 00:51:01;;;;;;;18.53;16.63;;;;;;;14.02;93.71;101250.72;702656;28;1652;-51
2021/07/10 00:51:21;;;;;;;19.13;17.15;;;;;;;14.00;93.74;101252.47;702860;28;1573;-51
2021/07/10 00:51:42;;;;;;;19.90;17.80;;;;;;;14.00;93.53;101252.47;702605;28;1406;-51
2021/07/10 00:52:03;;;;;;;19.33;17.27;;;;;;;13.96;93.42;101255.13;701434;28;4325;-54
2021/07/10 00:52:23;;;;;;;19.92;16.83;;;;;;;13.96;93.47;101249.03;703623;28;1783;-52
2021/07/10 00:52:44;;;;;;;18.98;16.52;;;;;;;13.96;93.30;101249.03;702711;27;4504;-52
2021/07/10 00:53:05;;;;;;;18.73;16.77;;;;;;;13.94;93.54;101251.66;702397;28;1673;-50
2021/07/10 00:53:25;;;;;;;18.80;16.60;;;;;;;13.95;93.78;101245.50;703699;28;1902;-53
2021/07/10 00:53:47;;;;;;;18.13;16.23;;;;;;;13.94;93.71;101243.78;703112;28;1517;-53
2021/07/10 00:54:08;;;;;;;18.33;16.42;;;;;;;13.95;93.69;101240.25;702760;28;1757;-58
2021/07/10 00:54:28;;;;;;;18.40;16.57;;;;;;;13.94;93.53;101246.41;703356;28;1769;-52
2021/07/10 00:54:49;;;;;;;17.98;16.17;;;;;;;13.94;93.68;101249.03;702442;28;1521;-52
2021/07/10 00:55:10;;;;;;;18.48;16.67;;;;;;;13.93;93.48;101244.66;703076;28;1476;-53
2021/07/10 00:55:31;;;;;;;18.58;16.60;;;;;;;13.93;93.35;101246.44;701226;28;4333;-54
2021/07/10 00:55:51;;;;;;;17.60;15.70;;;;;;;13.90;93.20;101244.69;701904;28;1945;-51
2021/07/10 00:56:12;;;;;;;18.37;15.50;;;;;;;13.88;93.49;101243.81;702514;28;1464;-51
2021/07/10 00:56:33;;;;;;;18.60;16.23;;;;;;;13.87;93.66;101243.84;702983;28;4013;-55
2021/07/10 00:56:58;;;;;;;19.45;16.92;;;;;;;13.85;93.78;101250.88;703067;28;4481;-50
2021/07/10 00:57:19;;;;;;;19.95;16.77;;;;;;;13.80;94.11;101243.03;702042;28;1685;-52
2021/07/10 00:57:42;;;;;;;20.48;16.92;;;;;;;13.77;94.07;101241.28;702666;28;2299;-53
2021/07/10 00:58:03;;;;;;;21.13;17.58;;;;;;;13.81;94.03;101246.53;702513;28;1491;-54
2021/07/10 00:58:24;;;;;;;19.77;17.30;;;;;;;13.80;93.93;101245.66;701079;28;1505;-53
2021/07/10 00:58:46;;;;;;;21.07;17.90;;;;;;;13.75;94.21;101248.31;702563;28;4320;-51
2021/07/10 00:59:06;;;;;;;20.27;17.80;;;;;;;13.73;94.15;101241.34;703704;28;1794;-52
2021/07/10 00:59:31;;;;;;;19.90;17.70;;;;;;;13.73;94.30;101249.22;702914;28;1852;-51
2021/07/10 00:59:52;;;;;;;19.55;17.05;;;;;;;13.76;94.18;101243.94;702874;28;1606;-52
2021/07/10 01:00:16;;;;;;;21.20;16.83;;;;;;;13.77;93.88;101250.94;703478;28;1399;-52
2021/07/10 01:00:37;;;;;;;20.17;16.83;;;;;;;13.77;93.64;101245.69;701985;28;1202;-50
2021/07/10 01:00:57;;;;;;;18.33;16.45;;;;;;;13.79;93.47;101243.94;701614;28;4428;-53
2021/07/10 01:01:18;;;;;;;18.75;16.85;;;;;;;13.80;93.26;101250.91;702900;28;1619;-52
2021/07/10 01:01:39;;;;;;;18.27;16.37;;;;;;;13.79;93.06;101249.19;702682;28;4573;-52
2021/07/10 01:02:00;;;;;;;18.58;16.77;;;;;;;13.78;92.97;101250.06;701972;28;1531;-50
2021/07/10 01:02:20;;;;;;;18.48;16.75;;;;;;;13.79;93.22;101251.81;702695;28;1840;-53
2021/07/10 01:02:43;;;;;;;18.60;16.80;;;;;;;13.78;93.05;101244.81;702150;28;1781;-52
2021/07/10 01:03:03;;;;;;;18.48;16.58;;;;;;;13.81;92.80;101242.16;702734;28;1708;-54
2021/07/10 01:03:25;;;;;;;18.67;16.67;;;;;;;13.83;93.08;101240.38;703365;28;1649;-51
2021/07/10 01:03:46;;;;;;;18.73;16.77;;;;;;;13.85;93.13;101235.97;702209;28;1686;-52
2021/07/10 01:04:07;;;;;;;18.42;16.52;;;;;;;13.86;93.50;101242.09;702514;28;1770;-54
2021/07/10 01:04:27;;;;;;;18.70;16.80;;;;;;;13.83;93.52;101242.13;702028;28;4359;-52
2021/07/10 01:04:47;;;;;;;18.97;16.93;;;;;;;13.80;93.84;101240.38;702077;28;1673;-53
2021/07/10 01:05:11;;;;;;;20.40;17.13;;;;;;;13.82;93.48;101245.63;703280;28;1556;-52
2021/07/10 01:05:34;;;;;;;18.73;16.73;;;;;;;13.84;93.52;101238.63;702928;28;4181;-56
2021/07/10 01:05:54;;;;;;;17.98;16.17;;;;;;;13.83;93.25;101235.13;702651;28;1892;-52
2021/07/10 01:06:15;;;;;;;18.05;16.27;;;;;;;13.85;93.13;101240.38;701825;28;1801;-54
2021/07/10 01:06:39;;;;;;;17.47;15.77;;;;;;;13.84;93.25;101242.09;701701;28;1506;-50
2021/07/10 01:07:00;;;;;;;17.73;16.00;;;;;;;13.85;93.04;101235.97;702014;28;1635;-54
2021/07/10 01:07:20;;;;;;;17.85;16.02;;;;;;;13.86;93.21;101236.84;703318;28;2062;-53
2021/07/10 01:07:40;;;;;;;17.80;15.97;;;;;;;13.85;93.12;101243.84;702041;28;4315;-51
2021/07/10 01:08:01;;;;;;;17.85;16.13;;;;;;;13.82;93.37;101236.00;702632;28;1540;-52
2021/07/10 01:08:21;;;;;;;18.77;16.83;;;;;;;13.80;93.32;101235.13;702561;28;1416;-51
2021/07/10 01:08:45;;;;;;;19.27;16.97;;;;;;;13.80;93.22;101235.13;702883;28;1666;-50
2021/07/10 01:09:06;;;;;;;19.35;17.05;;;;;;;13.80;93.86;101240.38;702521;28;1831;-54
2021/07/10 01:09:31;;;;;;;18.77;16.67;;;;;;;13.80;93.82;101235.13;703520;28;1348;-52
2021/07/10 01:09:51;;;;;;;18.02;16.23;;;;;;;13.75;93.66;101234.31;702531;28;2942;-50
2021/07/10 01:10:15;;;;;;;18.02;16.13;;;;;;;13.72;93.89;101236.97;703213;28;1911;-51
2021/07/10 01:10:35;;;;;;;17.60;15.68;;;;;;;13.70;94.36;101241.38;701579;28;4488;-52
2021/07/10 01:10:59;;;;;;;18.45;15.95;;;;;;;13.68;94.08;101240.50;702476;28;1929;-52
2021/07/10 01:11:20;;;;;;;20.20;16.35;;;;;;;13.63;94.48;101238.78;702937;28;1394;-52
2021/07/10 01:11:41;;;;;;;22.05;16.50;;;;;;;13.59;94.47;101239.69;702410;28;1987;-51
2021/07/10 01:12:01;;;;;;;17.80;15.93;;;;;;;13.58;94.20;101239.69;701687;28;1511;-55
2021/07/10 01:12:22;;;;;;;18.43;16.47;;;;;;;13.56;94.14;101234.47;703808;28;1690;-53
2021/07/10 01:12:45;;;;;;;18.88;16.40;;;;;;;13.54;94.38;101248.50;702674;28;1654;-53
2021/07/10 01:13:06;;;;;;;19.15;16.50;;;;;;;13.53;94.49;101242.38;703232;28;1414;-54
2021/07/10 01:13:27;;;;;;;18.13;16.23;;;;;;;13.53;94.42;101242.38;702637;28;4344;-53
2021/07/10 01:13:48;;;;;;;18.17;16.27;;;;;;;13.54;94.54;101236.25;702553;28;1501;-52
2021/07/10 01:14:08;;;;;;;18.33;16.52;;;;;;;13.54;94.37;101241.50;702063;28;4264;-54
2021/07/10 01:14:29;;;;;;;18.98;17.08;;;;;;;13.56;94.09;101242.34;702331;28;4582;-56
2021/07/10 01:14:49;;;;;;;17.20;15.40;;;;;;;13.60;93.99;101238.81;702570;28;1756;-51
2021/07/10 01:15:12;;;;;;;18.75;15.63;;;;;;;13.63;93.95;101241.41;703765;28;1908;-53
2021/07/10 01:15:33;;;;;;;16.88;15.07;;;;;;;13.67;93.65;101236.16;701806;28;1843;-53
2021/07/10 01:15:54;;;;;;;18.07;15.27;;;;;;;13.66;93.39;101244.91;702279;28;1574;-51
2021/07/10 01:16:15;;;;;;;18.00;15.27;;;;;;;13.61;93.57;101243.19;702993;28;2073;-51
2021/07/10 01:16:36;;;;;;;18.17;15.75;;;;;;;13.59;93.99;101242.31;702241;28;4532;-53
2021/07/10 01:16:59;;;;;;;21.08;16.17;;;;;;;13.55;94.02;101240.59;702620;28;1583;-51
2021/07/10 01:17:19;;;;;;;19.95;16.27;;;;;;;13.54;93.99;101244.13;702056;27;1633;-55
2021/07/10 01:17:42;;;;;;;20.10;16.53;;;;;;;13.52;93.98;101243.25;703245;28;1819;-54
2021/07/10 01:18:02;;;;;;;18.77;16.73;;;;;;;13.54;94.07;101233.63;703049;28;1662;-51
2021/07/10 01:18:23;;;;;;;18.53;16.50;;;;;;;13.52;94.46;101234.50;702678;28;1612;-54
2021/07/10 01:18:44;;;;;;;19.30;16.45;;;;;;;13.49;94.12;101238.03;702192;28;4503;-54
2021/07/10 01:19:04;;;;;;;18.20;16.30;;;;;;;13.51;94.59;101232.75;702656;28;1836;-52
2021/07/10 01:19:28;;;;;;;17.80;15.98;;;;;;;13.55;93.90;101230.09;702823;28;1742;-51
2021/07/10 01:19:59;;;;;;;17.48;15.55;;;;;;;13.56;93.62;101229.22;701494;28;4905;-53
2021/07/10 01:20:21;;;;;;;16.00;14.30;;;;;;;13.59;93.67;101230.94;702982;28;1408;-55
2021/07/10 01:20:49;;;;;;;15.98;14.38;;;;;;;13.65;93.28;101235.28;702009;28;2043;-52
2021/07/10 01:21:09;;;;;;;16.10;14.40;;;;;;;13.64;93.01;101226.53;702262;28;1880;-51
2021/07/10 01:21:30;;;;;;;17.13;15.35;;;;;;;13.61;93.74;101234.44;702737;28;1624;-52
2021/07/10 01:21:50;;;;;;;17.33;15.53;;;;;;;13.60;93.34;101228.31;701500;28;1909;-52
2021/07/10 01:22:13;;;;;;;16.60;14.90;;;;;;;13.61;93.45;101235.31;704169;28;1549;-51
2021/07/10 01:22:35;;;;;;;15.38;13.88;;;;;;;13.63;93.21;101236.16;702973;28;4398;-51
2021/07/10 01:22:57;;;;;;;15.48;13.90;;;;;;;13.65;92.66;101233.50;701854;28;3851;-52
2021/07/10 01:23:18;;;;;;;15.85;14.30;;;;;;;13.68;92.94;101235.25;702246;28;2976;-54
2021/07/10 01:23:38;;;;;;;16.92;15.13;;;;;;;13.67;92.79;101226.50;703829;28;1663;-52
2021/07/10 01:23:58;;;;;;;17.50;15.00;;;;;;;13.67;92.99;101230.91;702652;28;1660;-54
2021/07/10 01:24:19;;;;;;;16.67;14.70;;;;;;;13.68;92.85;101232.63;702932;28;3078;-53
2021/07/10 01:24:39;;;;;;;16.10;14.43;;;;;;;13.67;92.93;101234.38;702529;28;1737;-52
2021/07/10 01:24:59;;;;;;;15.93;14.23;;;;;;;13.66;92.69;101227.38;703083;28;1515;-54
2021/07/10 01:25:23;;;;;;;16.33;14.67;;;;;;;13.66;93.14;101237.03;703486;28;1557;-52
2021/07/10 01:25:44;;;;;;;18.50;15.63;;;;;;;13.61;93.50;101230.06;701624;28;4371;-55
2021/07/10 01:26:05;;;;;;;19.08;16.08;;;;;;;13.57;93.44;101230.97;699241;28;1704;-54
2021/07/10 01:26:25;;;;;;;17.20;15.18;;;;;;;13.52;93.53;101231.88;701778;28;1682;-51
2021/07/10 01:26:45;;;;;;;16.17;14.57;;;;;;;13.53;93.71;101226.63;702280;28;1641;-52
2021/07/10 01:27:06;;;;;;;16.13;14.27;;;;;;;13.54;93.54;101230.09;698835;28;1642;-51
2021/07/10 01:27:26;;;;;;;16.45;14.75;;;;;;;13.54;93.69;101227.47;699747;28;4206;-51
2021/07/10 01:27:48;;;;;;;17.30;15.50;;;;;;;13.53;93.48;101225.75;696655;28;4858;-51
2021/07/10 01:28:08;;;;;;;17.77;15.88;;;;;;;13.52;93.39;101227.50;700672;28;1760;-53
2021/07/10 01:28:29;;;;;;;17.57;15.77;;;;;;;13.51;93.49;101223.13;697129;28;4626;-53
2021/07/10 01:28:49;;;;;;;17.02;15.23;;;;;;;13.52;93.70;101229.25;698959;28;1542;-54
2021/07/10 01:29:09;;;;;;;17.50;15.70;;;;;;;13.51;93.86;101225.75;699349;28;2277;-54
2021/07/10 01:29:30;;;;;;;16.58;14.85;;;;;;;13.50;93.88;101226.66;699165;28;2011;-50
2021/07/10 01:29:52;;;;;;;17.70;14.83;;;;;;;13.51;93.58;101224.88;702674;28;1629;-54
2021/07/10 01:30:16;;;;;;;16.17;14.25;;;;;;;13.52;93.60;101224.88;701553;28;1305;-54
2021/07/10 01:30:37;;;;;;;15.88;14.20;;;;;;;13.55;93.01;101224.84;700780;28;1439;-58
2021/07/10 01:30:59;;;;;;;15.70;14.02;;;;;;;13.59;92.89;101231.81;699021;28;1614;-54
2021/07/10 01:31:19;;;;;;;16.35;13.60;;;;;;;13.62;92.87;101230.91;699766;28;1674;-51
2021/07/10 01:31:40;;;;;;;14.48;13.05;;;;;;;13.63;92.67;101227.41;701389;28;4324;-51
2021/07/10 01:32:00;;;;;;;15.13;13.63;;;;;;;13.62;92.53;101225.66;701525;28;4162;-55
2021/07/10 01:32:21;;;;;;;15.18;13.52;;;;;;;13.62;92.73;101234.44;701698;28;2619;-52
2021/07/10 01:32:44;;;;;;;15.57;13.98;;;;;;;13.63;92.54;101228.28;703219;28;1710;-54
2021/07/10 01:33:05;;;;;;;15.68;14.07;;;;;;;13.65;92.38;101232.66;702395;28;1537;-51
2021/07/10 01:33:25;;;;;;;15.93;14.05;;;;;;;13.63;92.48;101233.53;702416;28;1974;-55
2021/07/10 01:33:46;;;;;;;15.90;14.20;;;;;;;13.63;92.72;101238.78;702728;28;1564;-51
2021/07/10 01:34:06;;;;;;;15.93;14.15;;;;;;;13.61;92.34;101230.06;702459;28;2293;-52
2021/07/10 01:34:27;;;;;;;15.40;13.80;;;;;;;13.61;92.42;101227.44;703177;28;4558;-51
2021/07/10 01:34:48;;;;;;;14.93;13.43;;;;;;;13.62;92.42;101233.53;703600;28;2024;-55
2021/07/10 01:35:10;;;;;;;16.10;14.40;;;;;;;13.60;92.50;101235.31;703606;28;1460;-52
2021/07/10 01:35:31;;;;;;;15.75;14.10;;;;;;;13.58;92.51;101230.09;703038;28;1545;-55
2021/07/10 01:35:51;;;;;;;16.05;14.48;;;;;;;13.53;93.11;101231.88;702377;28;1717;-52
2021/07/10 01:36:12;;;;;;;17.10;15.13;;;;;;;13.49;93.19;101229.28;703227;28;1487;-52
2021/07/10 01:36:34;;;;;;;17.77;15.40;;;;;;;13.46;93.19;101227.56;703085;28;3782;-51
2021/07/10 01:36:54;;;;;;;16.55;14.85;;;;;;;13.48;93.22;101227.53;701740;28;1562;-52
2021/07/10 01:37:15;;;;;;;17.00;15.17;;;;;;;13.48;93.46;101232.78;701962;28;1539;-56
2021/07/10 01:37:38;;;;;;;17.35;15.55;;;;;;;13.45;93.61;101226.66;702799;28;4346;-52
2021/07/10 01:38:01;;;;;;;17.52;15.70;;;;;;;13.45;93.69;101224.03;701927;28;1673;-56